WZZ97TV EPKK-EDNY
Flight info
| Callsign | WZZ97TV |
|---|---|
| Flight time | 1h 6m |
| Altitude | 34000 |
| Route | BABKO5J BABKO DCT ORTYN DCT ABLOM DCT GAMLI DCT NEMAL DCT KPT KPT1F |
| Aircraft | A320/M-SDE3FGHIRWY/LB1 |
Departure
| Time | 2026-05-01 10:27 |
|---|---|
| Airport | Kraków John Paul II International Airport (EPKK) |
Arrival
| Time | 2026-05-01 11:34 |
|---|---|
| Airport | Bodensee Airport Friedrichshafen (EDNY) |
| Time | Latitude | Longitude | Altitude | Speed | Heading |
|---|---|---|---|---|---|
| 2026-05-01 10:01 | 50.07501 | 19.80272 | 800 ft | 0 kts | 168° |
| 2026-05-01 10:24 | 50.07470 | 19.80282 | 800 ft | 4 kts | 168° |
| 2026-05-01 10:24 | 50.07458 | 19.80366 | 800 ft | 6 kts | 42° |
| 2026-05-01 10:25 | 50.07564 | 19.80421 | 800 ft | 10 kts | 12° |
| 2026-05-01 10:25 | 50.07728 | 19.80375 | 800 ft | 14 kts | 348° |
| 2026-05-01 10:26 | 50.07829 | 19.80341 | 800 ft | 16 kts | 347° |
| 2026-05-01 10:26 | 50.07945 | 19.80303 | 800 ft | 18 kts | 348° |
| 2026-05-01 10:26 | 50.07998 | 19.80098 | 801 ft | 37 kts | 258° |
| 2026-05-01 10:27 | 50.07673 | 19.77726 | 986 ft | 159 kts | 259° |
| 2026-05-01 10:27 | 50.07231 | 19.74328 | 2697 ft | 166 kts | 260° |
| 2026-05-01 10:28 | 50.06974 | 19.72508 | 3494 ft | 177 kts | 261° |
| 2026-05-01 10:28 | 50.06421 | 19.68663 | 4698 ft | 190 kts | 262° |
| 2026-05-01 10:28 | 50.06106 | 19.66545 | 4959 ft | 213 kts | 256° |
| 2026-05-01 10:29 | 50.04102 | 19.63878 | 5395 ft | 263 kts | 189° |
| 2026-05-01 10:29 | 50.02230 | 19.63971 | 5884 ft | 280 kts | 168° |
| 2026-05-01 10:30 | 49.98405 | 19.65644 | 7469 ft | 290 kts | 160° |
| 2026-05-01 10:30 | 49.94474 | 19.67438 | 9070 ft | 299 kts | 161° |
| 2026-05-01 10:31 | 49.90352 | 19.68913 | 10527 ft | 315 kts | 169° |
| 2026-05-01 10:31 | 49.85710 | 19.67937 | 10875 ft | 367 kts | 202° |
| 2026-05-01 10:32 | 49.81074 | 19.63977 | 11889 ft | 385 kts | 209° |
| 2026-05-01 10:32 | 49.78745 | 19.61962 | 12508 ft | 389 kts | 209° |
| 2026-05-01 10:32 | 49.73939 | 19.57858 | 13725 ft | 398 kts | 208° |
| 2026-05-01 10:33 | 49.69055 | 19.53696 | 14891 ft | 407 kts | 208° |
| 2026-05-01 10:33 | 49.64065 | 19.49432 | 15931 ft | 414 kts | 208° |
| 2026-05-01 10:34 | 49.61531 | 19.47269 | 16458 ft | 418 kts | 208° |
| 2026-05-01 10:34 | 49.58953 | 19.45111 | 16980 ft | 421 kts | 207° |
| 2026-05-01 10:34 | 49.56332 | 19.43006 | 17470 ft | 425 kts | 206° |
| 2026-05-01 10:35 | 49.51024 | 19.38875 | 18501 ft | 433 kts | 205° |
| 2026-05-01 10:35 | 49.48309 | 19.36771 | 18981 ft | 437 kts | 205° |
| 2026-05-01 10:35 | 49.45602 | 19.34664 | 19451 ft | 440 kts | 205° |
| 2026-05-01 10:35 | 49.42841 | 19.32507 | 19937 ft | 444 kts | 205° |
| 2026-05-01 10:36 | 49.37312 | 19.28169 | 20856 ft | 451 kts | 205° |
| 2026-05-01 10:36 | 49.34502 | 19.25955 | 21311 ft | 455 kts | 206° |
| 2026-05-01 10:36 | 49.31841 | 19.23388 | 21739 ft | 460 kts | 216° |
| 2026-05-01 10:37 | 49.29407 | 19.20166 | 22144 ft | 463 kts | 226° |
| 2026-05-01 10:37 | 49.25146 | 19.12635 | 22936 ft | 469 kts | 230° |
| 2026-05-01 10:37 | 49.23036 | 19.08856 | 23373 ft | 472 kts | 230° |
| 2026-05-01 10:38 | 49.20887 | 19.05027 | 23768 ft | 476 kts | 230° |
| 2026-05-01 10:38 | 49.18713 | 19.01160 | 24144 ft | 479 kts | 230° |
| 2026-05-01 10:38 | 49.16551 | 18.97318 | 24457 ft | 481 kts | 230° |
| 2026-05-01 10:38 | 49.14349 | 18.93407 | 24785 ft | 484 kts | 230° |
| 2026-05-01 10:39 | 49.12139 | 18.89487 | 25096 ft | 487 kts | 230° |
| 2026-05-01 10:39 | 49.09939 | 18.85583 | 25439 ft | 489 kts | 230° |
| 2026-05-01 10:39 | 49.07706 | 18.81623 | 25830 ft | 490 kts | 230° |
| 2026-05-01 10:39 | 49.05497 | 18.77712 | 26133 ft | 492 kts | 230° |
| 2026-05-01 10:40 | 49.03248 | 18.73737 | 26484 ft | 494 kts | 230° |
| 2026-05-01 10:40 | 49.00984 | 18.69751 | 26833 ft | 497 kts | 230° |
| 2026-05-01 10:40 | 48.98720 | 18.65772 | 27199 ft | 498 kts | 230° |
| 2026-05-01 10:40 | 48.96433 | 18.61757 | 27555 ft | 501 kts | 230° |
| 2026-05-01 10:41 | 48.94176 | 18.57793 | 27856 ft | 503 kts | 230° |
| 2026-05-01 10:41 | 48.91859 | 18.53729 | 28193 ft | 506 kts | 230° |
| 2026-05-01 10:41 | 48.87247 | 18.45653 | 29035 ft | 506 kts | 230° |
| 2026-05-01 10:42 | 48.84925 | 18.41601 | 29469 ft | 506 kts | 230° |
| 2026-05-01 10:42 | 48.82629 | 18.37604 | 29893 ft | 506 kts | 230° |
| 2026-05-01 10:42 | 48.80312 | 18.33577 | 30337 ft | 505 kts | 230° |
| 2026-05-01 10:42 | 48.78018 | 18.29596 | 30726 ft | 505 kts | 230° |
| 2026-05-01 10:43 | 48.75699 | 18.25576 | 31119 ft | 504 kts | 230° |
| 2026-05-01 10:43 | 48.73379 | 18.21560 | 31520 ft | 504 kts | 229° |
| 2026-05-01 10:43 | 48.71081 | 18.17592 | 31872 ft | 505 kts | 229° |
| 2026-05-01 10:43 | 48.68763 | 18.13589 | 32251 ft | 505 kts | 229° |
| 2026-05-01 10:44 | 48.66445 | 18.09595 | 32603 ft | 504 kts | 229° |
| 2026-05-01 10:44 | 48.64123 | 18.05602 | 33066 ft | 502 kts | 229° |
| 2026-05-01 10:44 | 48.61844 | 18.01686 | 33465 ft | 502 kts | 229° |
| 2026-05-01 10:44 | 48.59533 | 17.97721 | 33874 ft | 501 kts | 229° |
| 2026-05-01 10:45 | 48.57217 | 17.93754 | 34261 ft | 501 kts | 229° |
| 2026-05-01 10:45 | 48.54929 | 17.89842 | 34380 ft | 504 kts | 229° |
| 2026-05-01 10:45 | 48.52582 | 17.85832 | 34385 ft | 511 kts | 229° |
| 2026-05-01 10:46 | 48.47867 | 17.77784 | 34376 ft | 514 kts | 229° |
| 2026-05-01 10:46 | 48.43111 | 17.69709 | 34376 ft | 514 kts | 229° |
| 2026-05-01 10:47 | 48.38366 | 17.61683 | 34394 ft | 514 kts | 228° |
| 2026-05-01 10:47 | 48.33584 | 17.53610 | 34380 ft | 515 kts | 228° |
| 2026-05-01 10:48 | 48.28825 | 17.45608 | 34380 ft | 515 kts | 228° |
| 2026-05-01 10:48 | 48.24059 | 17.37615 | 34382 ft | 515 kts | 228° |
| 2026-05-01 10:49 | 48.19261 | 17.29587 | 34389 ft | 514 kts | 228° |
| 2026-05-01 10:49 | 48.14509 | 17.21653 | 34391 ft | 514 kts | 228° |
| 2026-05-01 10:50 | 48.09951 | 17.13405 | 34388 ft | 512 kts | 239° |
| 2026-05-01 10:50 | 48.06981 | 17.03888 | 34387 ft | 505 kts | 257° |
| 2026-05-01 10:51 | 48.05854 | 16.93642 | 34385 ft | 496 kts | 270° |
| 2026-05-01 10:51 | 48.05240 | 16.83386 | 34408 ft | 497 kts | 270° |
| 2026-05-01 10:52 | 48.04591 | 16.73099 | 34407 ft | 498 kts | 270° |
| 2026-05-01 10:52 | 48.03929 | 16.62758 | 34410 ft | 499 kts | 270° |
| 2026-05-01 10:53 | 48.03273 | 16.52463 | 34410 ft | 499 kts | 270° |
| 2026-05-01 10:53 | 48.02607 | 16.42142 | 34414 ft | 499 kts | 269° |
| 2026-05-01 10:54 | 48.01922 | 16.31798 | 34392 ft | 499 kts | 269° |
| 2026-05-01 10:54 | 48.01225 | 16.21520 | 34427 ft | 498 kts | 269° |
| 2026-05-01 10:55 | 48.00533 | 16.11267 | 34430 ft | 497 kts | 269° |
| 2026-05-01 10:55 | 47.99836 | 16.01018 | 34434 ft | 496 kts | 269° |
| 2026-05-01 10:56 | 47.99124 | 15.90756 | 34419 ft | 496 kts | 269° |
| 2026-05-01 10:56 | 47.98407 | 15.80540 | 34392 ft | 495 kts | 269° |
| 2026-05-01 10:57 | 47.97677 | 15.70281 | 34419 ft | 494 kts | 269° |
| 2026-05-01 10:57 | 47.96947 | 15.60129 | 34418 ft | 493 kts | 269° |
| 2026-05-01 10:58 | 47.96198 | 15.49921 | 34414 ft | 493 kts | 268° |
| 2026-05-01 10:58 | 47.95445 | 15.39784 | 34403 ft | 492 kts | 268° |
| 2026-05-01 10:59 | 47.94684 | 15.29616 | 34418 ft | 492 kts | 268° |
| 2026-05-01 10:59 | 47.93920 | 15.19517 | 34418 ft | 491 kts | 268° |
| 2026-05-01 11:00 | 47.93143 | 15.09401 | 34421 ft | 491 kts | 268° |
| 2026-05-01 11:00 | 47.92356 | 14.99312 | 34418 ft | 491 kts | 268° |
| 2026-05-01 11:01 | 47.91559 | 14.89173 | 34403 ft | 490 kts | 268° |
| 2026-05-01 11:01 | 47.90773 | 14.79134 | 34417 ft | 489 kts | 270° |
| 2026-05-01 11:02 | 47.90789 | 14.69027 | 34424 ft | 484 kts | 276° |
| 2026-05-01 11:02 | 47.90929 | 14.59068 | 34422 ft | 483 kts | 276° |
| 2026-05-01 11:03 | 47.91055 | 14.49062 | 34401 ft | 483 kts | 276° |
| 2026-05-01 11:03 | 47.91167 | 14.39020 | 34421 ft | 482 kts | 275° |
| 2026-05-01 11:04 | 47.91267 | 14.29065 | 34421 ft | 482 kts | 275° |
| 2026-05-01 11:04 | 47.91370 | 14.19051 | 34423 ft | 482 kts | 276° |
| 2026-05-01 11:05 | 47.91459 | 14.09095 | 34390 ft | 481 kts | 275° |
| 2026-05-01 11:05 | 47.91542 | 13.99087 | 34403 ft | 480 kts | 275° |
| 2026-05-01 11:06 | 47.91613 | 13.89179 | 34418 ft | 479 kts | 275° |
| 2026-05-01 11:06 | 47.91680 | 13.79216 | 34421 ft | 479 kts | 275° |
| 2026-05-01 11:07 | 47.91754 | 13.64375 | 34388 ft | 479 kts | 275° |
| 2026-05-01 11:07 | 47.91795 | 13.54456 | 34407 ft | 478 kts | 275° |
| 2026-05-01 11:08 | 47.91716 | 13.44533 | 34410 ft | 478 kts | 272° |
| 2026-05-01 11:09 | 47.91033 | 13.29688 | 34404 ft | 479 kts | 269° |
| 2026-05-01 11:09 | 47.90522 | 13.19778 | 34375 ft | 478 kts | 270° |
| 2026-05-01 11:10 | 47.89866 | 13.05033 | 34390 ft | 477 kts | 270° |
| 2026-05-01 11:10 | 47.89445 | 12.95134 | 34384 ft | 477 kts | 270° |
| 2026-05-01 11:11 | 47.88998 | 12.85332 | 34378 ft | 477 kts | 270° |
| 2026-05-01 11:11 | 47.88604 | 12.77120 | 34383 ft | 477 kts | 270° |
| 2026-05-01 11:12 | 47.88056 | 12.65631 | 34389 ft | 477 kts | 270° |
| 2026-05-01 11:12 | 47.87659 | 12.57402 | 34391 ft | 476 kts | 270° |
| 2026-05-01 11:13 | 47.87175 | 12.47586 | 34387 ft | 476 kts | 270° |
| 2026-05-01 11:13 | 47.86678 | 12.37762 | 34387 ft | 476 kts | 269° |
| 2026-05-01 11:14 | 47.86170 | 12.27990 | 34388 ft | 475 kts | 269° |
| 2026-05-01 11:14 | 47.85663 | 12.18168 | 34384 ft | 475 kts | 269° |
| 2026-05-01 11:15 | 47.85149 | 12.08361 | 34379 ft | 475 kts | 269° |
| 2026-05-01 11:15 | 47.84621 | 11.98575 | 34375 ft | 475 kts | 269° |
| 2026-05-01 11:16 | 47.84087 | 11.88839 | 34206 ft | 470 kts | 269° |
| 2026-05-01 11:16 | 47.83816 | 11.83963 | 32836 ft | 474 kts | 269° |
| 2026-05-01 11:16 | 47.83542 | 11.79011 | 31380 ft | 480 kts | 268° |
| 2026-05-01 11:17 | 47.83271 | 11.74169 | 30634 ft | 468 kts | 268° |
| 2026-05-01 11:17 | 47.82998 | 11.69358 | 29502 ft | 463 kts | 268° |
| 2026-05-01 11:17 | 47.82730 | 11.64683 | 29020 ft | 443 kts | 268° |
| 2026-05-01 11:17 | 47.82466 | 11.60156 | 28395 ft | 437 kts | 268° |
| 2026-05-01 11:18 | 47.82205 | 11.55621 | 27768 ft | 436 kts | 268° |
| 2026-05-01 11:18 | 47.81949 | 11.51185 | 27154 ft | 434 kts | 268° |
| 2026-05-01 11:18 | 47.81686 | 11.46680 | 26528 ft | 434 kts | 268° |
| 2026-05-01 11:18 | 47.81422 | 11.42192 | 25907 ft | 433 kts | 268° |
| 2026-05-01 11:19 | 47.81160 | 11.37799 | 25313 ft | 431 kts | 267° |
| 2026-05-01 11:19 | 47.80892 | 11.33336 | 24696 ft | 430 kts | 267° |
| 2026-05-01 11:19 | 47.80626 | 11.28891 | 24079 ft | 430 kts | 267° |
| 2026-05-01 11:19 | 47.80365 | 11.24507 | 23413 ft | 429 kts | 267° |
| 2026-05-01 11:20 | 47.80100 | 11.20076 | 22820 ft | 426 kts | 267° |
| 2026-05-01 11:20 | 47.79834 | 11.15695 | 22235 ft | 423 kts | 267° |
| 2026-05-01 11:20 | 47.79571 | 11.11395 | 21687 ft | 420 kts | 267° |
| 2026-05-01 11:20 | 47.79302 | 11.07065 | 21131 ft | 418 kts | 266° |
| 2026-05-01 11:21 | 47.79031 | 11.02763 | 20608 ft | 415 kts | 266° |
| 2026-05-01 11:21 | 47.78759 | 10.98499 | 20081 ft | 412 kts | 266° |
| 2026-05-01 11:21 | 47.78491 | 10.94319 | 19568 ft | 409 kts | 266° |
| 2026-05-01 11:21 | 47.78223 | 10.90107 | 19056 ft | 407 kts | 266° |
| 2026-05-01 11:22 | 47.77958 | 10.85911 | 18501 ft | 405 kts | 266° |
| 2026-05-01 11:22 | 47.77693 | 10.81758 | 17927 ft | 402 kts | 265° |
| 2026-05-01 11:22 | 47.77424 | 10.77620 | 17376 ft | 399 kts | 265° |
| 2026-05-01 11:22 | 47.77155 | 10.73546 | 16827 ft | 396 kts | 265° |
| 2026-05-01 11:23 | 47.76886 | 10.69472 | 16251 ft | 394 kts | 265° |
| 2026-05-01 11:23 | 47.76625 | 10.65472 | 15693 ft | 391 kts | 265° |
| 2026-05-01 11:23 | 47.76364 | 10.61453 | 15114 ft | 390 kts | 265° |
| 2026-05-01 11:23 | 47.76101 | 10.57429 | 14524 ft | 388 kts | 265° |
| 2026-05-01 11:24 | 47.75837 | 10.53433 | 13932 ft | 387 kts | 265° |
| 2026-05-01 11:24 | 47.75574 | 10.49512 | 13329 ft | 384 kts | 265° |
| 2026-05-01 11:24 | 47.75034 | 10.41652 | 12167 ft | 378 kts | 264° |
| 2026-05-01 11:25 | 47.74766 | 10.37771 | 11610 ft | 375 kts | 264° |
| 2026-05-01 11:25 | 47.74395 | 10.30179 | 10898 ft | 358 kts | 268° |
| 2026-05-01 11:25 | 47.74350 | 10.26525 | 10772 ft | 345 kts | 269° |
| 2026-05-01 11:26 | 47.74340 | 10.23062 | 10646 ft | 334 kts | 269° |
| 2026-05-01 11:26 | 47.74313 | 10.16341 | 10388 ft | 314 kts | 269° |
| 2026-05-01 11:26 | 47.74283 | 10.13148 | 10162 ft | 309 kts | 268° |
| 2026-05-01 11:27 | 47.74242 | 10.09949 | 9769 ft | 309 kts | 268° |
| 2026-05-01 11:27 | 47.74298 | 10.06784 | 9240 ft | 304 kts | 278° |
| 2026-05-01 11:27 | 47.74703 | 10.03791 | 8649 ft | 301 kts | 282° |
| 2026-05-01 11:27 | 47.75144 | 10.00757 | 8065 ft | 298 kts | 282° |
| 2026-05-01 11:28 | 47.75577 | 9.97737 | 7509 ft | 295 kts | 282° |
| 2026-05-01 11:28 | 47.75999 | 9.94775 | 6978 ft | 292 kts | 282° |
| 2026-05-01 11:28 | 47.76414 | 9.91852 | 6390 ft | 290 kts | 282° |
| 2026-05-01 11:29 | 47.77202 | 9.86269 | 6012 ft | 262 kts | 282° |
| 2026-05-01 11:29 | 47.77567 | 9.83670 | 5935 ft | 251 kts | 282° |
| 2026-05-01 11:29 | 47.77648 | 9.78634 | 5362 ft | 250 kts | 248° |
| 2026-05-01 11:30 | 47.76848 | 9.76328 | 5035 ft | 251 kts | 238° |
| 2026-05-01 11:30 | 47.75974 | 9.74064 | 4687 ft | 249 kts | 239° |
| 2026-05-01 11:30 | 47.75130 | 9.71868 | 4370 ft | 238 kts | 240° |
| 2026-05-01 11:30 | 47.74339 | 9.69815 | 4047 ft | 223 kts | 240° |
| 2026-05-01 11:31 | 47.74077 | 9.69147 | 3956 ft | 217 kts | 238° |
| 2026-05-01 11:31 | 47.73562 | 9.67867 | 3932 ft | 202 kts | 241° |
| 2026-05-01 11:31 | 47.72890 | 9.66079 | 3561 ft | 193 kts | 241° |
| 2026-05-01 11:31 | 47.72249 | 9.64399 | 3288 ft | 178 kts | 240° |
| 2026-05-01 11:32 | 47.71675 | 9.62906 | 3033 ft | 160 kts | 240° |
| 2026-05-01 11:32 | 47.71126 | 9.61482 | 2811 ft | 156 kts | 240° |
| 2026-05-01 11:32 | 47.70595 | 9.60107 | 2607 ft | 154 kts | 240° |
| 2026-05-01 11:32 | 47.70065 | 9.58732 | 2415 ft | 150 kts | 240° |
| 2026-05-01 11:33 | 47.69553 | 9.57408 | 2202 ft | 148 kts | 240° |
| 2026-05-01 11:33 | 47.69048 | 9.56101 | 2002 ft | 144 kts | 239° |
| 2026-05-01 11:33 | 47.68557 | 9.54829 | 1797 ft | 141 kts | 240° |
| 2026-05-01 11:33 | 47.68252 | 9.54007 | 1667 ft | 136 kts | 248° |
| 2026-05-01 11:34 | 47.67765 | 9.52791 | 1470 ft | 137 kts | 239° |
| 2026-05-01 11:34 | 47.67299 | 9.51589 | 1376 ft | 124 kts | 239° |
| 2026-05-01 11:34 | 47.66999 | 9.50809 | 1373 ft | 35 kts | 239° |
| 2026-05-01 11:34 | 47.66877 | 9.50666 | 1375 ft | 22 kts | 213° |
| 2026-05-01 11:35 | 47.66772 | 9.50620 | 1374 ft | 7 kts | 141° |
| 2026-05-01 11:35 | 47.66767 | 9.50670 | 1373 ft | 8 kts | 75° |
| 2026-05-01 11:35 | 47.66797 | 9.50758 | 1374 ft | 10 kts | 59° |
| 2026-05-01 11:35 | 47.66836 | 9.50857 | 1374 ft | 12 kts | 60° |
| 2026-05-01 11:36 | 47.66884 | 9.50981 | 1373 ft | 16 kts | 59° |
| 2026-05-01 11:36 | 47.66940 | 9.51126 | 1373 ft | 16 kts | 60° |
| 2026-05-01 11:36 | 47.66999 | 9.51278 | 1374 ft | 18 kts | 60° |
| 2026-05-01 11:36 | 47.67063 | 9.51445 | 1373 ft | 20 kts | 59° |
| 2026-05-01 11:37 | 47.67135 | 9.51630 | 1373 ft | 22 kts | 59° |
| 2026-05-01 11:37 | 47.67209 | 9.51820 | 1371 ft | 20 kts | 60° |
| 2026-05-01 11:37 | 47.67268 | 9.51971 | 1366 ft | 12 kts | 59° |
| 2026-05-01 11:37 | 47.67304 | 9.52065 | 1367 ft | 0 kts | 60° |
| 2026-05-01 11:38 | 47.67304 | 9.52066 | 1367 ft | 0 kts | 60° |
| 2026-05-01 11:40 | 47.67308 | 9.52076 | 1366 ft | 2 kts | 59° |
| 2026-05-01 11:40 | 47.67307 | 9.52094 | 1368 ft | 2 kts | 102° |
| 2026-05-01 11:40 | 47.67297 | 9.52111 | 1367 ft | 3 kts | 139° |
| 2026-05-01 11:40 | 47.67285 | 9.52122 | 1368 ft | 0 kts | 151° |
| 2026-05-01 11:41 | 47.67281 | 9.52125 | 1368 ft | 1 kts | 150° |
| 2026-05-01 11:41 | 47.67278 | 9.52128 | 1368 ft | 0 kts | 153° |
| 2026-05-01 11:41 | 47.67277 | 9.52128 | 1368 ft | 0 kts | 153° |
| 2026-05-01 11:42 | 47.67272 | 9.52123 | 1368 ft | 0 kts | 207° |